sensor_id;sensor_type;location;lat;lon;timestamp;P1;durP1;ratioP1;P2;durP2;ratioP2
74898;SDS011;63458;48.210;16.338;2023-02-08T00:00:56;23.15;;;12.73;;
74898;SDS011;63458;48.210;16.338;2023-02-08T00:03:23;22.73;;;11.80;;
74898;SDS011;63458;48.210;16.338;2023-02-08T00:05:49;21.70;;;11.25;;
74898;SDS011;63458;48.210;16.338;2023-02-08T00:08:15;23.52;;;10.43;;
74898;SDS011;63458;48.210;16.338;2023-02-08T00:10:42;23.13;;;11.52;;
74898;SDS011;63458;48.210;16.338;2023-02-08T00:13:08;23.73;;;11.77;;
74898;SDS011;63458;48.210;16.338;2023-02-08T00:15:34;23.30;;;10.98;;
74898;SDS011;63458;48.210;16.338;2023-02-08T00:18:00;23.45;;;11.48;;
74898;SDS011;63458;48.210;16.338;2023-02-08T00:20:26;22.10;;;11.15;;
74898;SDS011;63458;48.210;16.338;2023-02-08T00:22:52;22.10;;;11.32;;
74898;SDS011;63458;48.210;16.338;2023-02-08T00:25:18;25.17;;;12.23;;
74898;SDS011;63458;48.210;16.338;2023-02-08T00:27:44;22.20;;;11.43;;
74898;SDS011;63458;48.210;16.338;2023-02-08T00:30:10;21.23;;;10.23;;
74898;SDS011;63458;48.210;16.338;2023-02-08T00:32:36;25.35;;;10.57;;
74898;SDS011;63458;48.210;16.338;2023-02-08T00:35:02;25.48;;;12.77;;
74898;SDS011;63458;48.210;16.338;2023-02-08T00:37:28;21.42;;;10.68;;
74898;SDS011;63458;48.210;16.338;2023-02-08T00:39:55;25.10;;;12.43;;
74898;SDS011;63458;48.210;16.338;2023-02-08T00:42:22;20.42;;;10.95;;
74898;SDS011;63458;48.210;16.338;2023-02-08T00:44:50;26.58;;;13.07;;
74898;SDS011;63458;48.210;16.338;2023-02-08T00:47:16;23.83;;;11.55;;
74898;SDS011;63458;48.210;16.338;2023-02-08T00:49:42;22.88;;;11.93;;
74898;SDS011;63458;48.210;16.338;2023-02-08T00:52:08;26.67;;;12.18;;
74898;SDS011;63458;48.210;16.338;2023-02-08T00:54:34;22.08;;;11.98;;
74898;SDS011;63458;48.210;16.338;2023-02-08T00:57:00;24.00;;;12.98;;
74898;SDS011;63458;48.210;16.338;2023-02-08T00:59:26;24.90;;;12.30;;
74898;SDS011;63458;48.210;16.338;2023-02-08T01:01:52;24.98;;;11.50;;
74898;SDS011;63458;48.210;16.338;2023-02-08T01:04:18;26.70;;;12.30;;
74898;SDS011;63458;48.210;16.338;2023-02-08T01:06:44;24.33;;;12.75;;
74898;SDS011;63458;48.210;16.338;2023-02-08T01:09:10;23.80;;;12.10;;
74898;SDS011;63458;48.210;16.338;2023-02-08T01:11:36;25.27;;;12.57;;
74898;SDS011;63458;48.210;16.338;2023-02-08T01:14:02;24.73;;;13.20;;
74898;SDS011;63458;48.210;16.338;2023-02-08T01:16:29;25.33;;;11.77;;
74898;SDS011;63458;48.210;16.338;2023-02-08T01:18:56;25.70;;;12.95;;
74898;SDS011;63458;48.210;16.338;2023-02-08T01:21:23;22.83;;;12.18;;
74898;SDS011;63458;48.210;16.338;2023-02-08T01:23:50;23.35;;;12.00;;
74898;SDS011;63458;48.210;16.338;2023-02-08T01:26:16;21.55;;;11.50;;
74898;SDS011;63458;48.210;16.338;2023-02-08T01:28:42;26.33;;;12.88;;
74898;SDS011;63458;48.210;16.338;2023-02-08T01:31:09;23.30;;;12.43;;
74898;SDS011;63458;48.210;16.338;2023-02-08T01:33:36;25.95;;;13.02;;
74898;SDS011;63458;48.210;16.338;2023-02-08T01:36:02;26.85;;;12.30;;
74898;SDS011;63458;48.210;16.338;2023-02-08T01:38:29;26.13;;;12.65;;
74898;SDS011;63458;48.210;16.338;2023-02-08T01:40:55;25.65;;;12.25;;
74898;SDS011;63458;48.210;16.338;2023-02-08T01:43:23;27.17;;;12.00;;
74898;SDS011;63458;48.210;16.338;2023-02-08T01:48:23;23.83;;;11.60;;
74898;SDS011;63458;48.210;16.338;2023-02-08T01:50:52;23.88;;;13.95;;
74898;SDS011;63458;48.210;16.338;2023-02-08T01:53:19;22.75;;;12.73;;
74898;SDS011;63458;48.210;16.338;2023-02-08T01:55:47;30.48;;;13.90;;
74898;SDS011;63458;48.210;16.338;2023-02-08T01:58:13;26.15;;;14.70;;
74898;SDS011;63458;48.210;16.338;2023-02-08T02:00:40;28.85;;;13.20;;
74898;SDS011;63458;48.210;16.338;2023-02-08T02:03:06;26.45;;;13.55;;
74898;SDS011;63458;48.210;16.338;2023-02-08T02:05:40;26.70;;;13.38;;
74898;SDS011;63458;48.210;16.338;2023-02-08T02:10:34;22.77;;;11.48;;
74898;SDS011;63458;48.210;16.338;2023-02-08T02:13:02;27.27;;;13.18;;
74898;SDS011;63458;48.210;16.338;2023-02-08T02:15:29;28.50;;;13.68;;
74898;SDS011;63458;48.210;16.338;2023-02-08T02:17:55;28.95;;;13.88;;
74898;SDS011;63458;48.210;16.338;2023-02-08T02:36:27;24.83;;;12.13;;
74898;SDS011;63458;48.210;16.338;2023-02-08T02:46:57;28.55;;;13.30;;
74898;SDS011;63458;48.210;16.338;2023-02-08T02:49:32;25.80;;;12.95;;
74898;SDS011;63458;48.210;16.338;2023-02-08T02:52:03;28.80;;;14.35;;
74898;SDS011;63458;48.210;16.338;2023-02-08T02:54:41;27.73;;;13.00;;
74898;SDS011;63458;48.210;16.338;2023-02-08T02:57:09;28.05;;;13.75;;
74898;SDS011;63458;48.210;16.338;2023-02-08T02:59:37;27.17;;;13.85;;
74898;SDS011;63458;48.210;16.338;2023-02-08T03:02:04;27.63;;;13.23;;
74898;SDS011;63458;48.210;16.338;2023-02-08T03:26:06;26.77;;;13.20;;
74898;SDS011;63458;48.210;16.338;2023-02-08T03:28:38;31.25;;;13.65;;
74898;SDS011;63458;48.210;16.338;2023-02-08T03:31:21;27.98;;;13.88;;
74898;SDS011;63458;48.210;16.338;2023-02-08T03:33:51;25.63;;;13.18;;
74898;SDS011;63458;48.210;16.338;2023-02-08T03:36:25;31.27;;;14.07;;
74898;SDS011;63458;48.210;16.338;2023-02-08T03:38:57;23.95;;;13.32;;
74898;SDS011;63458;48.210;16.338;2023-02-08T03:41:25;26.42;;;13.90;;
74898;SDS011;63458;48.210;16.338;2023-02-08T03:43:55;25.17;;;13.05;;
74898;SDS011;63458;48.210;16.338;2023-02-08T03:46:29;27.92;;;13.98;;
74898;SDS011;63458;48.210;16.338;2023-02-08T03:51:23;25.75;;;14.93;;
74898;SDS011;63458;48.210;16.338;2023-02-08T03:53:50;26.77;;;14.70;;
74898;SDS011;63458;48.210;16.338;2023-02-08T03:56:20;26.85;;;13.15;;
74898;SDS011;63458;48.210;16.338;2023-02-08T03:58:54;30.13;;;13.63;;
74898;SDS011;63458;48.210;16.338;2023-02-08T04:01:28;25.13;;;13.20;;
74898;SDS011;63458;48.210;16.338;2023-02-08T04:03:55;28.55;;;14.93;;
74898;SDS011;63458;48.210;16.338;2023-02-08T04:06:22;28.23;;;12.88;;
74898;SDS011;63458;48.210;16.338;2023-02-08T04:08:48;27.77;;;12.57;;
74898;SDS011;63458;48.210;16.338;2023-02-08T04:11:14;27.38;;;13.95;;
74898;SDS011;63458;48.210;16.338;2023-02-08T04:13:40;28.20;;;14.93;;
74898;SDS011;63458;48.210;16.338;2023-02-08T04:16:08;31.55;;;14.57;;
74898;SDS011;63458;48.210;16.338;2023-02-08T04:18:34;25.35;;;13.63;;
74898;SDS011;63458;48.210;16.338;2023-02-08T04:21:00;25.90;;;13.25;;
74898;SDS011;63458;48.210;16.338;2023-02-08T04:23:26;28.50;;;13.68;;
74898;SDS011;63458;48.210;16.338;2023-02-08T04:25:52;29.40;;;14.05;;
74898;SDS011;63458;48.210;16.338;2023-02-08T04:28:18;25.60;;;12.50;;
74898;SDS011;63458;48.210;16.338;2023-02-08T04:30:44;26.17;;;12.85;;
74898;SDS011;63458;48.210;16.338;2023-02-08T04:33:10;30.77;;;13.73;;
74898;SDS011;63458;48.210;16.338;2023-02-08T04:35:38;29.85;;;14.63;;
74898;SDS011;63458;48.210;16.338;2023-02-08T04:38:04;29.15;;;13.82;;
74898;SDS011;63458;48.210;16.338;2023-02-08T04:40:30;25.42;;;13.15;;
74898;SDS011;63458;48.210;16.338;2023-02-08T04:42:57;30.02;;;13.75;;
74898;SDS011;63458;48.210;16.338;2023-02-08T04:45:23;26.75;;;12.85;;
74898;SDS011;63458;48.210;16.338;2023-02-08T04:47:51;26.58;;;14.57;;
74898;SDS011;63458;48.210;16.338;2023-02-08T04:50:17;32.55;;;14.18;;
74898;SDS011;63458;48.210;16.338;2023-02-08T04:52:43;29.33;;;15.75;;
74898;SDS011;63458;48.210;16.338;2023-02-08T04:55:09;26.27;;;12.35;;
74898;SDS011;63458;48.210;16.338;2023-02-08T04:57:35;28.35;;;14.55;;
74898;SDS011;63458;48.210;16.338;2023-02-08T05:00:01;29.58;;;14.23;;
74898;SDS011;63458;48.210;16.338;2023-02-08T05:02:27;37.17;;;18.27;;
74898;SDS011;63458;48.210;16.338;2023-02-08T05:04:53;33.53;;;15.57;;
74898;SDS011;63458;48.210;16.338;2023-02-08T05:07:19;26.13;;;15.68;;
74898;SDS011;63458;48.210;16.338;2023-02-08T05:09:45;30.23;;;14.70;;
74898;SDS011;63458;48.210;16.338;2023-02-08T05:12:11;28.15;;;13.50;;
74898;SDS011;63458;48.210;16.338;2023-02-08T05:14:37;29.40;;;14.18;;
74898;SDS011;63458;48.210;16.338;2023-02-08T05:17:03;26.13;;;14.32;;
74898;SDS011;63458;48.210;16.338;2023-02-08T05:19:29;31.25;;;14.60;;
74898;SDS011;63458;48.210;16.338;2023-02-08T05:21:56;27.02;;;13.75;;
74898;SDS011;63458;48.210;16.338;2023-02-08T05:24:22;27.23;;;13.30;;
74898;SDS011;63458;48.210;16.338;2023-02-08T05:26:48;28.10;;;15.00;;
74898;SDS011;63458;48.210;16.338;2023-02-08T05:29:14;28.73;;;14.18;;
74898;SDS011;63458;48.210;16.338;2023-02-08T05:31:40;31.35;;;14.35;;
74898;SDS011;63458;48.210;16.338;2023-02-08T05:34:06;27.38;;;13.93;;
74898;SDS011;63458;48.210;16.338;2023-02-08T05:36:32;29.80;;;13.73;;
74898;SDS011;63458;48.210;16.338;2023-02-08T05:38:58;28.88;;;13.88;;
74898;SDS011;63458;48.210;16.338;2023-02-08T05:41:24;28.50;;;14.32;;
74898;SDS011;63458;48.210;16.338;2023-02-08T05:43:50;27.48;;;14.35;;
74898;SDS011;63458;48.210;16.338;2023-02-08T05:46:16;29.00;;;14.10;;
74898;SDS011;63458;48.210;16.338;2023-02-08T05:48:42;38.40;;;20.73;;
74898;SDS011;63458;48.210;16.338;2023-02-08T05:51:08;34.67;;;17.20;;
74898;SDS011;63458;48.210;16.338;2023-02-08T05:53:34;33.15;;;16.42;;
74898;SDS011;63458;48.210;16.338;2023-02-08T05:56:01;35.47;;;16.67;;
74898;SDS011;63458;48.210;16.338;2023-02-08T05:58:27;29.38;;;15.20;;
74898;SDS011;63458;48.210;16.338;2023-02-08T06:00:54;28.55;;;13.25;;
74898;SDS011;63458;48.210;16.338;2023-02-08T06:03:20;24.17;;;13.75;;
74898;SDS011;63458;48.210;16.338;2023-02-08T06:05:46;30.33;;;15.25;;
74898;SDS011;63458;48.210;16.338;2023-02-08T06:08:12;30.00;;;14.38;;
74898;SDS011;63458;48.210;16.338;2023-02-08T06:10:39;27.25;;;14.20;;
74898;SDS011;63458;48.210;16.338;2023-02-08T06:13:05;31.73;;;15.05;;
74898;SDS011;63458;48.210;16.338;2023-02-08T06:15:31;27.05;;;14.77;;
74898;SDS011;63458;48.210;16.338;2023-02-08T06:17:57;26.00;;;14.00;;
74898;SDS011;63458;48.210;16.338;2023-02-08T06:20:23;29.40;;;15.23;;
74898;SDS011;63458;48.210;16.338;2023-02-08T06:22:49;29.38;;;15.18;;
74898;SDS011;63458;48.210;16.338;2023-02-08T06:25:15;32.05;;;16.08;;
74898;SDS011;63458;48.210;16.338;2023-02-08T06:27:41;28.52;;;16.05;;
74898;SDS011;63458;48.210;16.338;2023-02-08T06:30:08;31.70;;;15.75;;
74898;SDS011;63458;48.210;16.338;2023-02-08T06:32:34;29.77;;;16.40;;
74898;SDS011;63458;48.210;16.338;2023-02-08T06:35:00;29.35;;;15.63;;
74898;SDS011;63458;48.210;16.338;2023-02-08T06:37:26;32.78;;;15.82;;
74898;SDS011;63458;48.210;16.338;2023-02-08T06:39:52;30.73;;;15.23;;
74898;SDS011;63458;48.210;16.338;2023-02-08T06:42:18;30.30;;;15.60;;
74898;SDS011;63458;48.210;16.338;2023-02-08T06:44:44;30.55;;;16.60;;
74898;SDS011;63458;48.210;16.338;2023-02-08T06:47:12;28.77;;;16.50;;
74898;SDS011;63458;48.210;16.338;2023-02-08T06:49:38;31.40;;;14.98;;
74898;SDS011;63458;48.210;16.338;2023-02-08T06:52:06;26.10;;;14.20;;
74898;SDS011;63458;48.210;16.338;2023-02-08T06:54:32;31.55;;;14.27;;
74898;SDS011;63458;48.210;16.338;2023-02-08T06:56:58;31.15;;;15.38;;
74898;SDS011;63458;48.210;16.338;2023-02-08T06:59:24;29.27;;;16.17;;
74898;SDS011;63458;48.210;16.338;2023-02-08T07:01:50;31.30;;;14.50;;
74898;SDS011;63458;48.210;16.338;2023-02-08T07:04:16;29.35;;;16.15;;
74898;SDS011;63458;48.210;16.338;2023-02-08T07:06:42;28.75;;;16.08;;
74898;SDS011;63458;48.210;16.338;2023-02-08T07:09:08;31.20;;;15.98;;
74898;SDS011;63458;48.210;16.338;2023-02-08T07:11:34;32.20;;;15.95;;
74898;SDS011;63458;48.210;16.338;2023-02-08T07:14:00;27.63;;;13.73;;
74898;SDS011;63458;48.210;16.338;2023-02-08T07:16:26;34.55;;;16.50;;
74898;SDS011;63458;48.210;16.338;2023-02-08T07:18:52;30.67;;;15.77;;
74898;SDS011;63458;48.210;16.338;2023-02-08T07:21:18;28.88;;;15.82;;
74898;SDS011;63458;48.210;16.338;2023-02-08T07:23:45;33.92;;;19.05;;
74898;SDS011;63458;48.210;16.338;2023-02-08T07:26:11;32.58;;;18.40;;
74898;SDS011;63458;48.210;16.338;2023-02-08T07:28:39;34.25;;;17.73;;
74898;SDS011;63458;48.210;16.338;2023-02-08T07:31:06;30.67;;;16.42;;
74898;SDS011;63458;48.210;16.338;2023-02-08T07:33:32;27.73;;;15.30;;
74898;SDS011;63458;48.210;16.338;2023-02-08T07:35:58;31.80;;;18.65;;
74898;SDS011;63458;48.210;16.338;2023-02-08T07:38:24;29.70;;;16.23;;
74898;SDS011;63458;48.210;16.338;2023-02-08T07:40:50;31.13;;;16.45;;
74898;SDS011;63458;48.210;16.338;2023-02-08T07:43:16;35.00;;;17.83;;
74898;SDS011;63458;48.210;16.338;2023-02-08T07:45:42;34.30;;;18.73;;
74898;SDS011;63458;48.210;16.338;2023-02-08T07:48:08;38.33;;;18.38;;
74898;SDS011;63458;48.210;16.338;2023-02-08T07:50:34;34.97;;;18.65;;
74898;SDS011;63458;48.210;16.338;2023-02-08T07:53:00;32.08;;;17.95;;
74898;SDS011;63458;48.210;16.338;2023-02-08T07:55:26;32.35;;;17.73;;
74898;SDS011;63458;48.210;16.338;2023-02-08T07:57:53;35.15;;;19.40;;
74898;SDS011;63458;48.210;16.338;2023-02-08T08:00:20;34.00;;;19.80;;
74898;SDS011;63458;48.210;16.338;2023-02-08T08:02:46;35.15;;;18.35;;
74898;SDS011;63458;48.210;16.338;2023-02-08T08:05:14;38.28;;;19.27;;
74898;SDS011;63458;48.210;16.338;2023-02-08T08:07:40;36.67;;;19.52;;
74898;SDS011;63458;48.210;16.338;2023-02-08T08:10:06;76.25;;;40.60;;
74898;SDS011;63458;48.210;16.338;2023-02-08T08:12:32;97.18;;;48.50;;
74898;SDS011;63458;48.210;16.338;2023-02-08T08:14:58;51.60;;;27.20;;
74898;SDS011;63458;48.210;16.338;2023-02-08T08:17:24;36.15;;;21.65;;
74898;SDS011;63458;48.210;16.338;2023-02-08T08:19:50;36.65;;;19.50;;
74898;SDS011;63458;48.210;16.338;2023-02-08T08:22:16;38.55;;;20.70;;
74898;SDS011;63458;48.210;16.338;2023-02-08T08:24:42;38.63;;;20.55;;
74898;SDS011;63458;48.210;16.338;2023-02-08T08:27:08;35.28;;;19.25;;
74898;SDS011;63458;48.210;16.338;2023-02-08T08:29:35;37.33;;;19.77;;
74898;SDS011;63458;48.210;16.338;2023-02-08T08:32:01;36.45;;;20.67;;
74898;SDS011;63458;48.210;16.338;2023-02-08T08:34:28;36.88;;;20.83;;
74898;SDS011;63458;48.210;16.338;2023-02-08T08:36:54;32.90;;;20.00;;
74898;SDS011;63458;48.210;16.338;2023-02-08T08:39:20;38.83;;;21.40;;
74898;SDS011;63458;48.210;16.338;2023-02-08T08:41:46;36.88;;;20.65;;
74898;SDS011;63458;48.210;16.338;2023-02-08T08:44:12;36.65;;;21.58;;
74898;SDS011;63458;48.210;16.338;2023-02-08T08:46:38;38.38;;;20.92;;
74898;SDS011;63458;48.210;16.338;2023-02-08T08:49:04;37.17;;;21.05;;
74898;SDS011;63458;48.210;16.338;2023-02-08T08:51:31;34.28;;;19.45;;
74898;SDS011;63458;48.210;16.338;2023-02-08T08:54:02;35.65;;;20.35;;
74898;SDS011;63458;48.210;16.338;2023-02-08T08:56:28;41.00;;;21.33;;
74898;SDS011;63458;48.210;16.338;2023-02-08T08:58:54;41.00;;;20.80;;
74898;SDS011;63458;48.210;16.338;2023-02-08T09:01:20;39.75;;;22.08;;
74898;SDS011;63458;48.210;16.338;2023-02-08T09:03:46;40.92;;;21.58;;
74898;SDS011;63458;48.210;16.338;2023-02-08T09:06:12;41.17;;;21.95;;
74898;SDS011;63458;48.210;16.338;2023-02-08T09:08:38;36.67;;;21.17;;
74898;SDS011;63458;48.210;16.338;2023-02-08T09:11:05;38.47;;;20.25;;
74898;SDS011;63458;48.210;16.338;2023-02-08T09:13:31;38.22;;;20.13;;
74898;SDS011;63458;48.210;16.338;2023-02-08T09:15:57;38.22;;;19.15;;
74898;SDS011;63458;48.210;16.338;2023-02-08T09:18:24;38.03;;;20.00;;
74898;SDS011;63458;48.210;16.338;2023-02-08T09:20:50;36.38;;;20.75;;
74898;SDS011;63458;48.210;16.338;2023-02-08T09:23:16;40.63;;;20.02;;
74898;SDS011;63458;48.210;16.338;2023-02-08T09:25:42;39.08;;;20.20;;
74898;SDS011;63458;48.210;16.338;2023-02-08T09:28:08;38.80;;;21.77;;
74898;SDS011;63458;48.210;16.338;2023-02-08T09:30:34;37.35;;;18.83;;
74898;SDS011;63458;48.210;16.338;2023-02-08T09:33:00;46.13;;;20.23;;
74898;SDS011;63458;48.210;16.338;2023-02-08T09:35:26;39.85;;;20.17;;
74898;SDS011;63458;48.210;16.338;2023-02-08T09:37:53;39.80;;;20.55;;
74898;SDS011;63458;48.210;16.338;2023-02-08T09:40:23;37.80;;;19.77;;
74898;SDS011;63458;48.210;16.338;2023-02-08T09:42:59;39.47;;;19.67;;
74898;SDS011;63458;48.210;16.338;2023-02-08T09:45:31;41.35;;;20.63;;
74898;SDS011;63458;48.210;16.338;2023-02-08T09:50:36;43.15;;;21.80;;
74898;SDS011;63458;48.210;16.338;2023-02-08T09:54:05;36.60;;;20.40;;
74898;SDS011;63458;48.210;16.338;2023-02-08T09:56:01;38.13;;;20.85;;
74898;SDS011;63458;48.210;16.338;2023-02-08T09:58:35;36.42;;;19.95;;
74898;SDS011;63458;48.210;16.338;2023-02-08T10:01:02;36.25;;;20.25;;
74898;SDS011;63458;48.210;16.338;2023-02-08T10:03:35;35.40;;;20.23;;
74898;SDS011;63458;48.210;16.338;2023-02-08T10:06:05;33.92;;;19.13;;
74898;SDS011;63458;48.210;16.338;2023-02-08T10:08:32;35.47;;;19.25;;
74898;SDS011;63458;48.210;16.338;2023-02-08T10:11:04;36.58;;;20.63;;
74898;SDS011;63458;48.210;16.338;2023-02-08T10:18:43;38.58;;;19.50;;
74898;SDS011;63458;48.210;16.338;2023-02-08T10:33:53;42.58;;;21.45;;
74898;SDS011;63458;48.210;16.338;2023-02-08T10:36:24;35.88;;;20.85;;
74898;SDS011;63458;48.210;16.338;2023-02-08T10:38:51;39.20;;;20.35;;
74898;SDS011;63458;48.210;16.338;2023-02-08T10:41:22;38.42;;;20.98;;
74898;SDS011;63458;48.210;16.338;2023-02-08T10:43:52;43.20;;;22.20;;
74898;SDS011;63458;48.210;16.338;2023-02-08T10:51:23;41.05;;;21.65;;
74898;SDS011;63458;48.210;16.338;2023-02-08T10:53:50;40.20;;;21.83;;
74898;SDS011;63458;48.210;16.338;2023-02-08T10:58:54;42.08;;;22.50;;
74898;SDS011;63458;48.210;16.338;2023-02-08T11:01:21;36.08;;;19.73;;
74898;SDS011;63458;48.210;16.338;2023-02-08T11:04:06;38.30;;;20.55;;
74898;SDS011;63458;48.210;16.338;2023-02-08T11:06:34;36.25;;;19.83;;
74898;SDS011;63458;48.210;16.338;2023-02-08T11:09:00;40.08;;;20.75;;
74898;SDS011;63458;48.210;16.338;2023-02-08T11:11:26;39.65;;;19.98;;
74898;SDS011;63458;48.210;16.338;2023-02-08T11:14:08;39.60;;;20.10;;
74898;SDS011;63458;48.210;16.338;2023-02-08T11:16:34;35.67;;;18.50;;
74898;SDS011;63458;48.210;16.338;2023-02-08T11:19:02;35.00;;;18.42;;
74898;SDS011;63458;48.210;16.338;2023-02-08T11:21:32;35.17;;;19.40;;
74898;SDS011;63458;48.210;16.338;2023-02-08T11:24:21;36.45;;;19.42;;
74898;SDS011;63458;48.210;16.338;2023-02-08T11:26:47;33.35;;;18.40;;
74898;SDS011;63458;48.210;16.338;2023-02-08T11:29:18;33.78;;;18.73;;
74898;SDS011;63458;48.210;16.338;2023-02-08T11:34:36;34.42;;;19.45;;
74898;SDS011;63458;48.210;16.338;2023-02-08T11:39:41;31.90;;;16.88;;
74898;SDS011;63458;48.210;16.338;2023-02-08T11:42:16;43.15;;;23.63;;
74898;SDS011;63458;48.210;16.338;2023-02-08T11:44:44;32.20;;;17.67;;
74898;SDS011;63458;48.210;16.338;2023-02-08T11:47:12;29.42;;;16.88;;
74898;SDS011;63458;48.210;16.338;2023-02-08T11:49:41;28.13;;;16.27;;
74898;SDS011;63458;48.210;16.338;2023-02-08T11:52:21;29.05;;;17.38;;
74898;SDS011;63458;48.210;16.338;2023-02-08T11:54:49;26.85;;;16.50;;
74898;SDS011;63458;48.210;16.338;2023-02-08T11:59:43;28.48;;;16.67;;
74898;SDS011;63458;48.210;16.338;2023-02-08T12:02:18;24.15;;;15.07;;
74898;SDS011;63458;48.210;16.338;2023-02-08T12:04:45;27.02;;;14.88;;
74898;SDS011;63458;48.210;16.338;2023-02-08T12:07:16;27.85;;;15.57;;
74898;SDS011;63458;48.210;16.338;2023-02-08T12:22:27;26.95;;;15.85;;
74898;SDS011;63458;48.210;16.338;2023-02-08T12:25:03;26.75;;;15.90;;
74898;SDS011;63458;48.210;16.338;2023-02-08T12:30:29;24.77;;;15.38;;
74898;SDS011;63458;48.210;16.338;2023-02-08T12:41:25;26.15;;;15.27;;
74898;SDS011;63458;48.210;16.338;2023-02-08T12:54:16;26.20;;;14.85;;
74898;SDS011;63458;48.210;16.338;2023-02-08T12:56:44;19.00;;;10.85;;
74898;SDS011;63458;48.210;16.338;2023-02-08T12:59:19;19.00;;;11.48;;
74898;SDS011;63458;48.210;16.338;2023-02-08T13:01:47;18.67;;;10.52;;
74898;SDS011;63458;48.210;16.338;2023-02-08T13:06:46;19.88;;;10.38;;
74898;SDS011;63458;48.210;16.338;2023-02-08T13:14:22;17.17;;;9.75;;
74898;SDS011;63458;48.210;16.338;2023-02-08T13:16:52;16.10;;;8.80;;
74898;SDS011;63458;48.210;16.338;2023-02-08T13:21:45;17.20;;;11.05;;
74898;SDS011;63458;48.210;16.338;2023-02-08T13:24:32;19.52;;;9.65;;
74898;SDS011;63458;48.210;16.338;2023-02-08T13:26:59;18.05;;;10.25;;
74898;SDS011;63458;48.210;16.338;2023-02-08T13:29:25;16.23;;;8.73;;
74898;SDS011;63458;48.210;16.338;2023-02-08T13:35:15;18.73;;;10.75;;
74898;SDS011;63458;48.210;16.338;2023-02-08T13:37:39;16.00;;;9.50;;
74898;SDS011;63458;48.210;16.338;2023-02-08T13:40:22;18.60;;;10.38;;
74898;SDS011;63458;48.210;16.338;2023-02-08T13:42:58;18.25;;;10.32;;
74898;SDS011;63458;48.210;16.338;2023-02-08T13:45:38;19.05;;;11.27;;
74898;SDS011;63458;48.210;16.338;2023-02-08T13:48:06;20.55;;;11.52;;
74898;SDS011;63458;48.210;16.338;2023-02-08T13:53:05;20.00;;;11.73;;
74898;SDS011;63458;48.210;16.338;2023-02-08T13:58:04;19.70;;;11.07;;
74898;SDS011;63458;48.210;16.338;2023-02-08T14:03:22;19.80;;;11.02;;
74898;SDS011;63458;48.210;16.338;2023-02-08T14:06:01;18.40;;;10.35;;
74898;SDS011;63458;48.210;16.338;2023-02-08T14:08:43;17.40;;;9.50;;
74898;SDS011;63458;48.210;16.338;2023-02-08T14:16:21;17.38;;;9.23;;
74898;SDS011;63458;48.210;16.338;2023-02-08T14:18:55;17.65;;;9.02;;
74898;SDS011;63458;48.210;16.338;2023-02-08T14:21:32;13.90;;;7.35;;
74898;SDS011;63458;48.210;16.338;2023-02-08T14:24:06;16.52;;;8.32;;
74898;SDS011;63458;48.210;16.338;2023-02-08T14:26:32;16.73;;;7.43;;
74898;SDS011;63458;48.210;16.338;2023-02-08T14:29:00;16.08;;;9.25;;
74898;SDS011;63458;48.210;16.338;2023-02-08T14:31:38;18.30;;;10.32;;
74898;SDS011;63458;48.210;16.338;2023-02-08T14:34:04;17.38;;;8.82;;
74898;SDS011;63458;48.210;16.338;2023-02-08T14:36:32;15.68;;;9.40;;
74898;SDS011;63458;48.210;16.338;2023-02-08T14:41:45;16.58;;;8.55;;
74898;SDS011;63458;48.210;16.338;2023-02-08T14:46:56;13.13;;;6.50;;
74898;SDS011;63458;48.210;16.338;2023-02-08T14:49:22;11.52;;;6.38;;
74898;SDS011;63458;48.210;16.338;2023-02-08T14:51:56;13.02;;;6.60;;
74898;SDS011;63458;48.210;16.338;2023-02-08T14:54:26;12.30;;;5.35;;
74898;SDS011;63458;48.210;16.338;2023-02-08T14:56:59;13.35;;;5.75;;
74898;SDS011;63458;48.210;16.338;2023-02-08T14:59:27;13.88;;;5.95;;
74898;SDS011;63458;48.210;16.338;2023-02-08T15:01:55;12.07;;;6.10;;
74898;SDS011;63458;48.210;16.338;2023-02-08T15:04:22;14.30;;;6.40;;
74898;SDS011;63458;48.210;16.338;2023-02-08T15:09:16;13.45;;;7.28;;
74898;SDS011;63458;48.210;16.338;2023-02-08T15:11:46;14.65;;;7.38;;
74898;SDS011;63458;48.210;16.338;2023-02-08T15:14:15;14.32;;;7.53;;
74898;SDS011;63458;48.210;16.338;2023-02-08T15:16:43;14.02;;;7.15;;
74898;SDS011;63458;48.210;16.338;2023-02-08T15:19:14;15.65;;;8.20;;
74898;SDS011;63458;48.210;16.338;2023-02-08T15:21:43;15.55;;;7.95;;
74898;SDS011;63458;48.210;16.338;2023-02-08T15:24:19;16.05;;;8.38;;
74898;SDS011;63458;48.210;16.338;2023-02-08T15:26:50;16.13;;;8.13;;
74898;SDS011;63458;48.210;16.338;2023-02-08T15:29:18;19.10;;;9.23;;
74898;SDS011;63458;48.210;16.338;2023-02-08T15:31:44;18.80;;;9.80;;
74898;SDS011;63458;48.210;16.338;2023-02-08T15:34:11;16.83;;;9.45;;
74898;SDS011;63458;48.210;16.338;2023-02-08T15:36:37;16.15;;;8.77;;
74898;SDS011;63458;48.210;16.338;2023-02-08T15:39:47;19.33;;;10.05;;
74898;SDS011;63458;48.210;16.338;2023-02-08T15:41:55;20.25;;;10.30;;
74898;SDS011;63458;48.210;16.338;2023-02-08T15:44:24;17.40;;;9.27;;
74898;SDS011;63458;48.210;16.338;2023-02-08T15:46:51;18.05;;;8.45;;
74898;SDS011;63458;48.210;16.338;2023-02-08T15:51:53;16.27;;;9.75;;
74898;SDS011;63458;48.210;16.338;2023-02-08T15:54:21;18.50;;;10.25;;
74898;SDS011;63458;48.210;16.338;2023-02-08T15:56:52;18.67;;;10.10;;
74898;SDS011;63458;48.210;16.338;2023-02-08T15:59:20;22.60;;;10.95;;
74898;SDS011;63458;48.210;16.338;2023-02-08T16:01:48;19.52;;;9.60;;
74898;SDS011;63458;48.210;16.338;2023-02-08T16:04:14;21.20;;;11.05;;
74898;SDS011;63458;48.210;16.338;2023-02-08T16:06:44;17.90;;;9.23;;
74898;SDS011;63458;48.210;16.338;2023-02-08T16:09:18;17.67;;;10.30;;
74898;SDS011;63458;48.210;16.338;2023-02-08T16:11:45;20.38;;;9.35;;
74898;SDS011;63458;48.210;16.338;2023-02-08T16:14:13;20.05;;;10.27;;
74898;SDS011;63458;48.210;16.338;2023-02-08T16:16:42;18.40;;;9.77;;
74898;SDS011;63458;48.210;16.338;2023-02-08T16:19:27;20.80;;;10.32;;
74898;SDS011;63458;48.210;16.338;2023-02-08T16:21:55;19.67;;;10.52;;
74898;SDS011;63458;48.210;16.338;2023-02-08T16:24:22;18.80;;;9.70;;
74898;SDS011;63458;48.210;16.338;2023-02-08T16:26:56;20.02;;;10.85;;
74898;SDS011;63458;48.210;16.338;2023-02-08T16:29:24;17.33;;;8.95;;
74898;SDS011;63458;48.210;16.338;2023-02-08T16:32:04;20.25;;;9.98;;
74898;SDS011;63458;48.210;16.338;2023-02-08T16:34:31;19.02;;;10.10;;
74898;SDS011;63458;48.210;16.338;2023-02-08T16:36:58;17.23;;;8.82;;
74898;SDS011;63458;48.210;16.338;2023-02-08T16:39:36;17.98;;;10.15;;
74898;SDS011;63458;48.210;16.338;2023-02-08T16:42:05;23.92;;;13.07;;
74898;SDS011;63458;48.210;16.338;2023-02-08T16:44:33;18.15;;;10.15;;
74898;SDS011;63458;48.210;16.338;2023-02-08T16:46:59;22.75;;;10.70;;
74898;SDS011;63458;48.210;16.338;2023-02-08T16:49:26;20.42;;;10.55;;
74898;SDS011;63458;48.210;16.338;2023-02-08T16:51:56;18.27;;;8.95;;
74898;SDS011;63458;48.210;16.338;2023-02-08T16:54:22;19.30;;;10.45;;
74898;SDS011;63458;48.210;16.338;2023-02-08T16:56:49;21.55;;;10.35;;